createdAt,value
2022-11-17T00:01:42.946Z,99066.44
2022-11-17T00:04:10.808Z,99175.97
2022-11-17T00:06:38.316Z,99176.84
2022-11-17T00:09:05.407Z,99182.91
2022-11-17T00:11:52.551Z,99180.31
2022-11-17T00:14:36.937Z,99176.00
2022-11-17T00:17:05.937Z,99170.81
2022-11-17T00:19:51.791Z,99169.06
2022-11-17T00:22:19.122Z,99166.50
2022-11-17T00:24:46.600Z,99163.91
2022-11-17T00:27:13.992Z,99164.75
2022-11-17T00:29:41.516Z,99154.38
2022-11-17T00:32:31.326Z,99156.97
2022-11-17T00:34:58.774Z,99154.38
2022-11-17T00:37:26.381Z,99155.25
2022-11-17T00:39:59.274Z,99141.41
2022-11-17T00:42:28.147Z,99144.88
2022-11-17T00:44:55.320Z,99147.47
2022-11-17T00:47:22.435Z,99148.31
2022-11-17T00:49:49.945Z,99144.00
2022-11-17T00:52:17.195Z,99138.81
2022-11-17T00:54:44.529Z,99145.69
2022-11-17T00:57:11.746Z,99135.31
2022-11-17T00:59:39.003Z,99130.13
2022-11-17T01:02:06.216Z,99122.34
2022-11-17T01:04:33.540Z,99128.41
2022-11-17T01:07:00.710Z,99128.38
2022-11-17T01:09:28.208Z,99124.94
2022-11-17T01:11:55.663Z,99124.94
2022-11-17T01:14:26.440Z,99120.63
2022-11-17T01:16:54.070Z,99125.84
2022-11-17T01:19:22.118Z,99109.38
2022-11-17T01:21:49.304Z,99111.09
2022-11-17T01:24:17.464Z,99100.72
2022-11-17T01:26:45.724Z,99099.88
2022-11-17T01:29:14.428Z,99097.25
2022-11-17T01:31:43.638Z,99089.47
2022-11-17T01:34:11.302Z,99094.66
2022-11-17T01:36:58.667Z,99093.81
2022-11-17T01:39:26.838Z,99087.75
2022-11-17T01:41:54.373Z,99086.88
2022-11-17T01:44:54.187Z,99088.59
2022-11-17T01:47:42.785Z,99086.84
2022-11-17T01:50:13.189Z,99085.09
2022-11-17T01:52:41.221Z,99084.22
2022-11-17T01:55:10.103Z,99079.91
2022-11-17T01:57:44.510Z,99083.34
2022-11-17T02:00:12.635Z,99077.28
2022-11-17T02:02:41.456Z,99076.41
2022-11-17T02:05:33.362Z,99072.97
2022-11-17T02:08:02.502Z,99078.13
2022-11-17T02:10:31.050Z,99072.09
2022-11-17T02:12:58.754Z,99070.34
2022-11-17T02:15:26.525Z,99072.94
2022-11-17T02:17:54.363Z,99071.25
2022-11-17T02:20:30.976Z,99066.03
2022-11-17T02:23:10.597Z,99072.97
2022-11-17T02:25:55.144Z,99059.97
2022-11-17T02:28:31.301Z,99064.31
2022-11-17T02:30:58.788Z,99063.44
2022-11-17T02:33:41.267Z,99051.31
2022-11-17T02:36:10.219Z,99049.59
2022-11-17T02:38:55.969Z,99045.25
2022-11-17T02:41:26.573Z,99037.47
2022-11-17T02:44:05.534Z,99040.94
2022-11-17T02:46:37.971Z,99038.34
2022-11-17T02:49:13.587Z,99042.63
2022-11-17T02:51:41.390Z,99038.31
2022-11-17T02:54:09.577Z,99034.88
2022-11-17T02:56:40.683Z,99030.56
2022-11-17T02:59:08.293Z,99034.00
2022-11-17T03:01:41.959Z,99031.41
2022-11-17T03:04:18.604Z,99022.75
2022-11-17T03:07:04.411Z,99030.56
2022-11-17T03:09:31.670Z,99029.72
2022-11-17T03:12:09.405Z,99026.25
2022-11-17T03:14:39.826Z,99021.94
2022-11-17T03:17:26.369Z,99018.50
2022-11-17T03:19:59.366Z,99023.69
2022-11-17T03:22:46.939Z,99017.63
2022-11-17T03:25:16.585Z,99018.47
2022-11-17T03:27:47.347Z,99014.16
2022-11-17T03:30:15.703Z,99013.31
2022-11-17T03:32:47.019Z,99013.31
2022-11-17T03:35:17.782Z,99002.94
2022-11-17T03:37:49.883Z,99009.00
2022-11-17T03:40:23.030Z,99002.97
2022-11-17T03:42:54.313Z,99000.38
2022-11-17T03:45:21.484Z,98999.53
2022-11-17T03:47:50.446Z,98994.34
2022-11-17T03:50:21.969Z,98996.94
2022-11-17T03:52:49.511Z,98996.09
2022-11-17T03:55:17.547Z,98886.72
2022-11-17T03:57:49.699Z,98992.63
2022-11-17T04:00:17.400Z,98991.75
2022-11-17T04:02:46.034Z,98999.56
2022-11-17T04:05:14.526Z,98989.22
2022-11-17T04:07:43.100Z,99003.03
2022-11-17T04:10:14.416Z,98989.19
2022-11-17T04:13:00.316Z,98982.28
2022-11-17T04:15:45.935Z,98989.22
2022-11-17T04:18:13.745Z,98984.00
2022-11-17T04:20:41.224Z,98981.41
2022-11-17T04:23:14.370Z,98978.81
2022-11-17T04:26:04.591Z,98981.41
2022-11-17T04:28:38.794Z,98982.25
2022-11-17T04:31:10.332Z,98978.81
2022-11-17T04:33:38.965Z,98975.34
2022-11-17T04:36:06.827Z,98976.22
2022-11-17T04:38:34.157Z,98978.84
2022-11-17T04:41:24.617Z,98979.69
2022-11-17T04:43:52.245Z,98986.63
2022-11-17T04:46:20.124Z,98984.88
2022-11-17T04:48:48.047Z,98979.69
2022-11-17T04:51:16.010Z,98983.13
2022-11-17T04:53:43.627Z,98979.66
2022-11-17T04:56:11.309Z,98975.31
2022-11-17T04:58:38.827Z,98978.78
2022-11-17T05:01:16.293Z,98983.97
2022-11-17T05:03:45.632Z,98979.66
2022-11-17T05:06:23.300Z,98981.41
2022-11-17T05:08:51.072Z,98985.72
2022-11-17T05:11:36.532Z,98983.13
2022-11-17T05:14:03.879Z,98982.28
2022-11-17T05:17:10.957Z,98984.88
2022-11-17T05:19:38.946Z,98975.38
2022-11-17T05:22:25.060Z,98984.00
2022-11-17T05:24:52.467Z,98979.72
2022-11-17T05:27:20.177Z,98982.34
2022-11-17T05:29:47.672Z,98978.03
2022-11-17T05:32:14.859Z,98979.75
2022-11-17T05:34:42.331Z,98982.31
2022-11-17T05:37:09.845Z,98986.63
2022-11-17T05:39:37.187Z,98977.97
2022-11-17T05:42:04.454Z,98975.34
2022-11-17T05:44:31.762Z,98979.66
2022-11-17T05:46:59.079Z,98981.34
2022-11-17T05:49:26.338Z,98976.97
2022-11-17T05:51:53.727Z,98971.78
2022-11-17T05:54:21.084Z,98976.97
2022-11-17T05:56:53.862Z,98979.56
2022-11-17T05:59:28.441Z,98978.78
2022-11-17T06:02:01.377Z,98973.63
2022-11-17T06:04:28.785Z,98982.38
2022-11-17T06:06:59.595Z,98978.13
2022-11-17T06:09:28.945Z,98970.34
2022-11-17T06:11:58.615Z,98976.34
2022-11-17T06:14:30.004Z,98975.44
2022-11-17T06:16:59.682Z,98976.28
2022-11-17T06:19:33.651Z,98965.91
2022-11-17T06:22:16.073Z,98969.44
2022-11-17T06:24:45.332Z,98971.22
2022-11-17T06:27:14.114Z,98968.72
2022-11-17T06:29:44.871Z,98974.75
2022-11-17T06:32:16.335Z,98974.75
2022-11-17T06:34:49.181Z,98978.22
2022-11-17T06:37:19.324Z,98966.06
2022-11-17T06:39:46.884Z,98976.38
2022-11-17T06:42:14.081Z,98975.53
2022-11-17T06:44:41.387Z,98971.22
2022-11-17T06:47:08.663Z,98971.16
2022-11-17T06:49:35.825Z,98978.88
2022-11-17T06:52:03.159Z,98970.22
2022-11-17T06:54:30.436Z,98970.25
2022-11-17T06:56:57.873Z,98970.31
2022-11-17T06:59:25.306Z,98973.81
2022-11-17T07:01:52.633Z,98977.38
2022-11-17T07:04:19.949Z,98975.69
2022-11-17T07:06:47.239Z,98976.59
2022-11-17T07:09:14.501Z,98972.28
2022-11-17T07:11:41.948Z,98980.84
2022-11-17T07:14:09.371Z,98982.53
2022-11-17T07:16:36.485Z,98984.34
2022-11-17T07:19:03.959Z,98977.44
2022-11-17T07:21:31.444Z,98980.88
2022-11-17T07:23:58.770Z,98979.94
2022-11-17T07:26:25.965Z,98981.59
2022-11-17T07:28:53.528Z,98978.94
2022-11-17T07:31:20.978Z,98977.09
2022-11-17T07:33:48.180Z,98988.38
2022-11-17T07:36:15.718Z,98986.53
2022-11-17T07:38:43.094Z,98982.16
2022-11-17T07:41:12.642Z,98984.66
2022-11-17T07:43:40.219Z,98991.53
2022-11-17T07:46:08.798Z,98989.78
2022-11-17T07:48:36.503Z,98993.13
2022-11-17T07:51:04.576Z,98992.16
2022-11-17T07:53:33.545Z,98989.53
2022-11-17T07:56:07.980Z,98988.53
2022-11-17T07:58:36.067Z,98985.84
2022-11-17T08:01:07.365Z,98985.66
2022-11-17T08:03:35.283Z,98987.38
2022-11-17T08:06:03.358Z,98994.59
2022-11-17T08:08:30.474Z,98997.59
2022-11-17T08:11:01.790Z,98991.78
2022-11-17T08:13:29.030Z,98983.22
2022-11-17T08:15:57.391Z,98988.34
2022-11-17T08:18:24.826Z,98976.22
2022-11-17T08:20:52.005Z,98980.56
2022-11-17T08:23:19.308Z,98971.97
2022-11-17T08:25:46.833Z,98980.59
2022-11-17T08:28:14.011Z,98978.94
2022-11-17T08:30:41.280Z,98983.16
2022-11-17T08:33:08.519Z,98982.31
2022-11-17T08:35:37.558Z,98973.78
2022-11-17T08:38:05.013Z,98979.00
2022-11-17T08:40:32.558Z,98981.66
2022-11-17T08:43:01.572Z,98981.69
2022-11-17T08:45:29.217Z,98974.72
2022-11-17T08:47:57.025Z,98981.53
2022-11-17T08:50:24.588Z,98975.44
2022-11-17T08:52:52.157Z,98980.47
2022-11-17T08:55:19.897Z,98971.50
2022-11-17T08:57:47.272Z,98965.47
2022-11-17T09:00:14.888Z,98969.13
2022-11-17T09:02:42.319Z,98962.47
2022-11-17T09:05:10.442Z,98970.47
2022-11-17T09:07:38.061Z,98965.41
2022-11-17T09:10:06.111Z,98979.28
2022-11-17T09:12:33.347Z,98973.31
2022-11-17T09:15:00.596Z,98971.53
2022-11-17T09:17:27.738Z,98972.41
2022-11-17T09:19:54.888Z,98965.50
2022-11-17T09:22:22.146Z,98968.03
2022-11-17T09:24:52.361Z,98962.78
2022-11-17T09:27:19.543Z,98959.31
2022-11-17T09:29:48.116Z,98962.72
2022-11-17T09:32:17.154Z,98957.53
2022-11-17T09:34:44.397Z,98958.28
2022-11-17T09:37:12.090Z,98951.13
2022-11-17T09:39:39.369Z,98943.03
2022-11-17T09:42:07.041Z,98942.66
2022-11-17T09:44:43.513Z,98941.56
2022-11-17T09:47:26.133Z,98940.78
2022-11-17T09:49:58.382Z,98947.06
2022-11-17T09:52:29.524Z,98942.78
2022-11-17T09:54:56.913Z,98951.53
2022-11-17T09:57:42.272Z,98940.53
2022-11-17T10:00:15.070Z,98943.31
2022-11-17T10:02:43.013Z,98945.16
2022-11-17T10:05:29.462Z,98942.63
2022-11-17T10:08:00.215Z,98940.03
2022-11-17T10:10:39.893Z,98950.47
2022-11-17T10:13:11.340Z,98947.97
2022-11-17T10:15:42.581Z,98952.41
2022-11-17T10:18:12.874Z,98948.09
2022-11-17T10:20:41.106Z,98959.34
2022-11-17T10:23:12.877Z,98956.75
2022-11-17T10:25:41.781Z,98955.09
2022-11-17T10:28:11.182Z,98955.09
2022-11-17T10:30:38.270Z,98959.41
2022-11-17T10:33:05.525Z,98953.31
2022-11-17T10:35:34.394Z,98956.75
2022-11-17T10:38:18.079Z,98954.19
2022-11-17T10:40:49.947Z,98947.22
2022-11-17T10:43:24.588Z,98955.81
2022-11-17T10:45:56.810Z,98947.16
2022-11-17T10:48:24.170Z,98947.13
2022-11-17T10:50:55.821Z,98944.50
2022-11-17T10:53:24.857Z,98950.59
2022-11-17T10:55:54.768Z,98953.16
2022-11-17T10:58:29.310Z,98946.28
2022-11-17T11:00:57.774Z,98949.78
2022-11-17T11:03:27.426Z,98955.06
2022-11-17T11:05:58.702Z,98953.34
2022-11-17T11:08:45.144Z,98949.03
2022-11-17T11:11:38.750Z,98950.69
2022-11-17T11:14:12.080Z,98955.03
2022-11-17T11:16:45.037Z,98944.66
2022-11-17T11:19:16.033Z,98937.66
2022-11-17T11:21:53.797Z,98948.81
2022-11-17T11:24:24.145Z,98948.78
2022-11-17T11:27:09.753Z,98941.09
2022-11-17T11:29:51.102Z,98945.50
2022-11-17T11:32:29.212Z,98952.47
2022-11-17T11:34:57.137Z,98953.34
2022-11-17T11:37:28.821Z,98951.63
2022-11-17T11:39:59.483Z,98950.00
2022-11-17T11:42:41.834Z,98957.78
2022-11-17T11:45:17.883Z,98957.78
2022-11-17T11:47:59.328Z,98962.94
2022-11-17T11:50:28.619Z,98955.16
2022-11-17T11:53:07.398Z,98956.03
2022-11-17T11:55:36.881Z,98954.34
2022-11-17T11:58:22.821Z,98962.97
2022-11-17T12:00:51.627Z,98954.38
2022-11-17T12:03:23.583Z,98955.22
2022-11-17T12:06:42.039Z,98960.38
2022-11-17T12:09:28.043Z,98946.56
2022-11-17T12:12:02.134Z,98959.50
2022-11-17T12:14:29.590Z,98950.84
2022-11-17T12:17:03.335Z,98953.44
2022-11-17T12:19:53.547Z,98950.88
2022-11-17T12:22:26.068Z,98956.94
2022-11-17T12:24:56.689Z,98949.19
2022-11-17T12:27:36.235Z,98957.84
2022-11-17T12:30:05.445Z,98951.81
2022-11-17T12:32:45.598Z,98950.09
2022-11-17T12:35:21.661Z,98950.09
2022-11-17T12:37:49.309Z,98957.00
2022-11-17T12:40:35.045Z,98952.69
2022-11-17T12:43:31.744Z,98958.75
2022-11-17T12:45:58.987Z,98963.06
2022-11-17T12:48:34.693Z,98967.34
2022-11-17T12:51:05.089Z,98957.88
2022-11-17T12:53:35.822Z,98964.75
2022-11-17T12:56:21.677Z,98963.03
2022-11-17T12:58:49.140Z,98969.09
2022-11-17T13:01:20.442Z,98966.50
2022-11-17T13:03:50.960Z,98963.91
2022-11-17T13:06:36.402Z,98975.97
2022-11-17T13:09:08.525Z,98966.50
2022-11-17T13:11:35.877Z,98980.28
2022-11-17T13:14:21.056Z,98978.56
2022-11-17T13:16:51.759Z,98981.16
2022-11-17T13:19:38.850Z,98992.34
2022-11-17T13:22:15.041Z,98982.88
2022-11-17T13:24:52.418Z,98990.59
2022-11-17T13:27:29.333Z,98977.69
2022-11-17T13:30:13.829Z,98981.97
2022-11-17T13:32:43.253Z,98976.81
2022-11-17T13:35:30.328Z,98983.66
2022-11-17T13:38:01.595Z,98980.22
2022-11-17T13:40:29.588Z,98975.91
2022-11-17T13:42:57.461Z,98991.41
2022-11-17T13:45:24.901Z,98987.94
2022-11-17T13:47:53.859Z,98991.38
2022-11-17T13:50:21.274Z,98982.72
2022-11-17T13:52:53.012Z,98992.16
2022-11-17T13:55:20.966Z,98988.69
2022-11-17T13:58:00.857Z,98986.97
2022-11-17T14:00:28.867Z,98986.91
2022-11-17T14:03:04.041Z,98983.50
2022-11-17T14:05:32.723Z,98990.34
2022-11-17T14:08:11.293Z,98981.72
2022-11-17T14:10:39.263Z,98987.75
2022-11-17T14:13:06.563Z,98988.56
2022-11-17T14:15:37.992Z,98989.41
2022-11-17T14:18:15.703Z,98983.38
2022-11-17T14:20:43.505Z,98990.25
2022-11-17T14:23:10.706Z,98992.78
2022-11-17T14:25:41.990Z,98991.94
2022-11-17T14:28:16.287Z,98991.91
2022-11-17T14:30:43.670Z,98997.91
2022-11-17T14:33:13.816Z,98990.16
2022-11-17T14:35:41.904Z,98991.00
2022-11-17T14:38:27.177Z,98989.28
2022-11-17T14:40:54.450Z,98991.84
2022-11-17T14:43:21.957Z,98986.63
2022-11-17T14:45:51.780Z,99006.41
2022-11-17T14:48:20.570Z,98996.91
2022-11-17T14:50:48.374Z,98991.72
2022-11-17T14:53:15.902Z,98998.59
2022-11-17T14:55:43.130Z,99002.00
2022-11-17T14:58:10.528Z,99004.56
2022-11-17T15:00:37.693Z,99001.13
2022-11-17T15:03:05.295Z,99001.09
2022-11-17T15:05:32.629Z,98989.06
2022-11-17T15:08:00.318Z,98998.50
2022-11-17T15:10:27.919Z,98995.88
2022-11-17T15:12:55.912Z,98988.09
2022-11-17T15:15:23.514Z,98989.84
2022-11-17T15:17:50.955Z,98989.78
2022-11-17T15:20:18.342Z,98993.19
2022-11-17T15:22:45.715Z,98989.75
2022-11-17T15:25:13.013Z,98991.50
2022-11-17T15:27:40.215Z,98993.19
2022-11-17T15:30:07.805Z,98990.63
2022-11-17T15:32:36.605Z,98993.28
2022-11-17T15:35:03.718Z,98996.81
2022-11-17T15:37:30.889Z,98993.44
2022-11-17T15:39:58.412Z,98990.91
2022-11-17T15:42:25.908Z,98990.94
2022-11-17T15:44:53.215Z,98988.38
2022-11-17T15:47:20.724Z,98985.84
2022-11-17T15:49:48.186Z,98987.53
2022-11-17T15:52:15.435Z,98989.25
2022-11-17T15:54:42.639Z,98977.25
2022-11-17T15:57:09.853Z,98982.41
2022-11-17T15:59:37.369Z,98982.44
2022-11-17T16:02:10.641Z,98980.72
2022-11-17T16:04:37.940Z,98991.06
2022-11-17T16:07:05.400Z,98982.44
2022-11-17T16:09:33.427Z,98997.09
2022-11-17T16:12:01.205Z,98984.19
2022-11-17T16:14:28.337Z,98986.78
2022-11-17T16:16:55.858Z,98983.34
2022-11-17T16:19:23.105Z,98986.72
2022-11-17T16:21:50.760Z,98977.25
2022-11-17T16:24:18.143Z,98977.25
2022-11-17T16:26:46.018Z,98976.41
2022-11-17T16:29:13.458Z,98966.94
2022-11-17T16:31:41.263Z,98966.94
2022-11-17T16:34:12.890Z,98976.38
2022-11-17T16:36:41.139Z,98976.34
2022-11-17T16:39:09.925Z,98965.19
2022-11-17T16:41:38.190Z,98966.91
2022-11-17T16:44:09.474Z,98966.88
2022-11-17T16:46:36.925Z,98960.00
2022-11-17T16:49:05.572Z,98972.88
2022-11-17T16:51:33.238Z,98965.16
2022-11-17T16:54:02.491Z,98965.16
2022-11-17T16:56:29.901Z,98968.56
2022-11-17T16:58:58.810Z,98968.56
2022-11-17T17:01:27.506Z,98970.22
2022-11-17T17:03:56.018Z,98959.00
2022-11-17T17:06:23.570Z,98967.59
2022-11-17T17:09:11.408Z,98965.00
2022-11-17T17:11:39.002Z,98962.50
2022-11-17T17:14:08.399Z,98963.41
2022-11-17T17:16:36.744Z,98960.81
2022-11-17T17:19:04.997Z,98961.72
2022-11-17T17:21:32.873Z,98961.66
2022-11-17T17:24:00.074Z,98959.91
2022-11-17T17:26:28.559Z,98949.59
2022-11-17T17:28:57.063Z,98958.19
2022-11-17T17:31:25.507Z,98947.03
2022-11-17T17:33:53.139Z,98958.16
2022-11-17T17:36:21.420Z,98950.41
2022-11-17T17:38:54.984Z,98950.44
2022-11-17T17:41:24.784Z,98949.53
2022-11-17T17:43:59.735Z,98959.78
2022-11-17T17:46:29.923Z,98956.38
2022-11-17T17:48:57.330Z,98958.13
2022-11-17T17:51:25.998Z,98952.09
2022-11-17T17:53:58.323Z,98946.88
2022-11-17T17:56:25.827Z,98941.69
2022-11-17T17:58:56.948Z,98946.88
2022-11-17T18:01:25.270Z,98944.31
2022-11-17T18:04:01.160Z,98953.88
2022-11-17T18:06:28.724Z,98954.72
2022-11-17T18:08:57.552Z,98945.25
2022-11-17T18:11:25.106Z,98945.22
2022-11-17T18:13:52.933Z,98948.66
2022-11-17T18:16:21.744Z,98946.13
2022-11-17T18:18:49.733Z,98943.50
2022-11-17T18:21:18.147Z,98946.91
2022-11-17T18:23:45.632Z,98942.56
2022-11-17T18:26:16.781Z,98951.16
2022-11-17T18:28:45.761Z,98945.94
2022-11-17T18:31:12.929Z,98951.16
2022-11-17T18:33:40.632Z,98950.28
2022-11-17T18:36:08.841Z,98940.88
2022-11-17T18:38:36.401Z,98940.03
2022-11-17T18:41:07.850Z,98952.91
2022-11-17T18:43:35.357Z,98943.34
2022-11-17T18:46:03.529Z,98940.75
2022-11-17T18:48:34.715Z,98945.91
2022-11-17T18:51:19.167Z,98950.22
2022-11-17T18:53:47.574Z,98946.75
2022-11-17T18:56:16.698Z,98945.91
2022-11-17T18:58:44.596Z,98944.13
2022-11-17T19:01:14.772Z,98950.97
2022-11-17T19:03:43.324Z,98951.84
2022-11-17T19:06:11.480Z,98950.97
2022-11-17T19:08:38.661Z,98954.41
2022-11-17T19:11:06.712Z,98933.75
2022-11-17T19:13:35.330Z,98937.16
2022-11-17T19:16:09.762Z,98927.66
2022-11-17T19:18:37.033Z,98927.66
2022-11-17T19:21:09.287Z,98931.06
2022-11-17T19:23:37.476Z,98935.28
2022-11-17T19:26:24.768Z,98936.09
2022-11-17T19:28:56.476Z,98930.06
2022-11-17T19:31:23.715Z,98936.13
2022-11-17T19:33:51.269Z,98932.66
2022-11-17T19:36:20.306Z,98923.19
2022-11-17T19:38:48.423Z,98928.38
2022-11-17T19:41:26.260Z,98924.06
2022-11-17T19:43:54.548Z,98921.56
2022-11-17T19:46:23.023Z,98924.16
2022-11-17T19:48:50.911Z,98919.00
2022-11-17T19:51:22.653Z,98921.56
2022-11-17T19:53:50.833Z,98916.44
2022-11-17T19:56:18.666Z,98922.41
2022-11-17T19:58:46.562Z,98910.38
2022-11-17T20:01:15.788Z,98918.09
2022-11-17T20:03:43.715Z,98909.53
2022-11-17T20:06:12.053Z,98912.94
2022-11-17T20:08:39.271Z,98914.66
2022-11-17T20:11:10.801Z,98906.09
2022-11-17T20:13:38.530Z,98902.66
2022-11-17T20:16:11.678Z,98902.66
2022-11-17T20:18:40.078Z,98903.53
2022-11-17T20:21:07.678Z,98898.38
2022-11-17T20:23:35.804Z,98901.00
2022-11-17T20:26:04.669Z,98900.13
2022-11-17T20:28:33.135Z,98900.13
2022-11-17T20:31:06.009Z,98900.16
2022-11-17T20:33:33.291Z,98901.91
2022-11-17T20:36:01.312Z,98889.84
2022-11-17T20:38:28.765Z,98889.81
2022-11-17T20:40:56.450Z,98883.00
2022-11-17T20:43:24.121Z,98890.69
2022-11-17T20:45:52.166Z,98889.00
2022-11-17T20:48:19.819Z,98889.03
2022-11-17T20:50:57.368Z,98889.09
2022-11-17T20:53:25.098Z,98883.09
2022-11-17T20:55:52.449Z,98892.44
2022-11-17T20:58:19.992Z,98887.22
2022-11-17T21:00:47.543Z,98886.38
2022-11-17T21:03:14.951Z,98872.66
2022-11-17T21:05:42.367Z,98873.47
2022-11-17T21:08:09.769Z,98868.31
2022-11-17T21:10:37.336Z,98868.31
2022-11-17T21:13:04.716Z,98859.72
2022-11-17T21:15:32.177Z,98870.91
2022-11-17T21:18:18.005Z,98873.47
2022-11-17T21:20:45.604Z,98866.63
2022-11-17T21:23:13.015Z,98871.78
2022-11-17T21:25:40.718Z,98852.88
2022-11-17T21:28:07.811Z,98876.03
2022-11-17T21:30:35.133Z,98885.44
2022-11-17T21:33:02.368Z,98875.09
2022-11-17T21:35:29.517Z,98868.25
2022-11-17T21:37:56.706Z,98857.09
2022-11-17T21:40:24.280Z,98864.81
2022-11-17T21:42:51.712Z,98860.50
2022-11-17T21:45:19.021Z,98847.72
2022-11-17T21:47:46.690Z,98854.63
2022-11-17T21:50:13.885Z,98870.03
2022-11-17T21:52:41.143Z,98856.25
2022-11-17T21:55:08.760Z,98854.56
2022-11-17T21:57:36.002Z,98858.91
2022-11-17T22:00:03.200Z,98849.44
2022-11-17T22:02:31.831Z,98841.69
2022-11-17T22:04:58.979Z,98845.09
2022-11-17T22:07:27.568Z,98849.38
2022-11-17T22:09:55.206Z,98849.38
2022-11-17T22:12:22.540Z,98853.72
2022-11-17T22:14:50.036Z,98840.00
2022-11-17T22:17:17.561Z,98843.44
2022-11-17T22:19:44.674Z,98842.56
2022-11-17T22:22:11.705Z,98845.13
2022-11-17T22:24:39.867Z,98845.13
2022-11-17T22:27:07.302Z,98840.78
2022-11-17T22:29:34.697Z,98854.50
2022-11-17T22:32:02.091Z,98853.69
2022-11-17T22:34:29.290Z,98851.97
2022-11-17T22:36:56.379Z,98847.63
2022-11-17T22:39:23.713Z,98847.66
2022-11-17T22:41:50.928Z,98858.00
2022-11-17T22:44:18.257Z,98851.06
2022-11-17T22:46:46.163Z,98845.84
2022-11-17T22:49:13.625Z,98851.00
2022-11-17T22:51:59.429Z,98841.56
2022-11-17T22:54:26.787Z,98843.31
2022-11-17T22:56:53.920Z,98838.19
2022-11-17T22:59:23.063Z,98832.16
2022-11-17T23:01:50.447Z,98836.50
2022-11-17T23:04:17.726Z,98840.72
2022-11-17T23:06:45.310Z,98836.41
2022-11-17T23:09:12.834Z,98833.84
2022-11-17T23:11:40.044Z,98836.47
2022-11-17T23:14:09.195Z,98837.31
2022-11-17T23:16:36.933Z,98827.00
2022-11-17T23:19:04.560Z,98826.09
2022-11-17T23:21:31.810Z,98834.66
2022-11-17T23:23:59.076Z,98823.56
2022-11-17T23:26:26.322Z,98812.41
2022-11-17T23:28:53.526Z,98821.81
2022-11-17T23:31:20.615Z,98815.00
2022-11-17T23:33:48.079Z,98815.03
2022-11-17T23:36:16.656Z,98805.59
2022-11-17T23:38:44.496Z,98805.59
2022-11-17T23:41:13.123Z,98792.66
2022-11-17T23:43:40.665Z,98797.81
2022-11-17T23:46:10.500Z,98793.59
2022-11-17T23:48:37.905Z,98797.00
2022-11-17T23:51:06.167Z,98774.69
2022-11-17T23:53:33.796Z,98787.56
2022-11-17T23:56:01.559Z,98784.09
2022-11-17T23:58:29.697Z,98777.19
